Time;durP1;ratioP1;P1;durP2;ratioP2;P2;SDS_P1;SDS_P2;PMS_P1;PMS_P2;Temp;Humidity;BMP_temperature;BMP_pressure;BME280_temperature;BME280_humidity;BME280_pressure;Samples;Min_cycle;Max_cycle;Signal;HPM_P1;HPM_P2
2023/05/04 00:00:06;;;;;;;6.35;1.98;;;;;;;;;;5056286;28;20049;-77
2023/05/04 00:02:31;;;;;;;4.07;1.92;;;;;;;;;;5054270;28;20701;-77
2023/05/04 00:04:57;;;;;;;6.32;1.90;;;;;;;;;;5055755;28;20040;-77
2023/05/04 00:07:22;;;;;;;6.25;1.77;;;;;;;;;;5051916;28;20586;-77
2023/05/04 00:09:49;;;;;;;5.03;1.70;;;;;;;;;;5054251;28;20045;-77
2023/05/04 00:12:14;;;;;;;6.57;2.10;;;;;;;;;;5054823;28;20029;-77
2023/05/04 00:14:40;;;;;;;7.13;1.80;;;;;;;;;;5052675;28;20353;-77
2023/05/04 00:17:06;;;;;;;8.52;2.35;;;;;;;;;;5053041;28;20040;-77
2023/05/04 00:19:35;;;;;;;3.65;1.63;;;;;;;;;;5046643;28;20524;-77
2023/05/04 00:22:01;;;;;;;5.45;2.00;;;;;;;;;;5062057;28;20036;-76
2023/05/04 00:24:27;;;;;;;3.90;1.67;;;;;;;;;;5056675;28;20029;-76
2023/05/04 00:26:52;;;;;;;4.28;1.85;;;;;;;;;;5044572;28;20059;-76
2023/05/04 00:29:17;;;;;;;4.90;1.60;;;;;;;;;;5039379;28;20495;-76
2023/05/04 00:31:43;;;;;;;7.15;2.35;;;;;;;;;;5054366;28;20036;-76
2023/05/04 00:34:08;;;;;;;5.80;1.80;;;;;;;;;;5055434;28;20037;-77
2023/05/04 00:36:34;;;;;;;11.18;2.58;;;;;;;;;;5052165;28;20072;-76
2023/05/04 00:38:59;;;;;;;6.53;1.70;;;;;;;;;;5051907;28;20032;-76
2023/05/04 00:41:25;;;;;;;5.88;1.58;;;;;;;;;;5054015;28;20488;-77
2023/05/04 00:43:50;;;;;;;7.72;2.65;;;;;;;;;;5052811;28;20032;-76
2023/05/04 00:46:16;;;;;;;5.90;2.42;;;;;;;;;;5058010;28;20033;-76
2023/05/04 00:48:42;;;;;;;6.75;2.60;;;;;;;;;;5051605;28;20059;-78
2023/05/04 00:51:10;;;;;;;4.05;1.67;;;;;;;;;;5052431;28;20393;-77
2023/05/04 00:53:35;;;;;;;4.78;1.88;;;;;;;;;;5055698;28;20106;-77
2023/05/04 00:56:02;;;;;;;7.93;2.47;;;;;;;;;;5050184;28;20035;-77
2023/05/04 00:58:28;;;;;;;4.07;1.77;;;;;;;;;;5037898;28;20033;-77
2023/05/04 01:00:53;;;;;;;4.20;1.80;;;;;;;;;;5061080;28;20033;-77
2023/05/04 01:03:19;;;;;;;4.90;2.00;;;;;;;;;;5053326;28;20392;-77
2023/05/04 01:06:16;;;;;;;5.38;1.77;;;;;;;;;;5043641;28;20476;-77
2023/05/04 01:08:46;;;;;;;6.05;2.17;;;;;;;;;;5040996;28;20095;-77
2023/05/04 01:11:20;;;;;;;6.32;1.75;;;;;;;;;;5053652;28;20029;-77
2023/05/04 01:13:47;;;;;;;6.22;1.85;;;;;;;;;;5059816;28;20050;-76
2023/05/04 01:16:12;;;;;;;6.50;2.13;;;;;;;;;;5050723;28;20397;-78
2023/05/04 01:18:38;;;;;;;6.30;2.03;;;;;;;;;;5058434;28;20032;-78
2023/05/04 01:21:03;;;;;;;4.85;1.80;;;;;;;;;;5053000;28;20041;-78
2023/05/04 01:23:28;;;;;;;6.40;2.08;;;;;;;;;;5053090;28;20037;-77
2023/05/04 01:25:57;;;;;;;6.25;2.20;;;;;;;;;;5053579;28;20496;-77
2023/05/04 01:28:41;;;;;;;5.85;1.88;;;;;;;;;;5051127;28;20051;-78
2023/05/04 01:31:08;;;;;;;4.55;1.75;;;;;;;;;;5050391;28;20177;-78
2023/05/04 01:33:33;;;;;;;6.40;2.20;;;;;;;;;;5051976;28;20036;-77
2023/05/04 01:35:58;;;;;;;5.03;2.20;;;;;;;;;;5049274;28;20040;-78
2023/05/04 01:38:24;;;;;;;6.43;2.28;;;;;;;;;;5044717;28;20065;-77
2023/05/04 01:40:49;;;;;;;5.85;1.98;;;;;;;;;;5043741;28;20036;-77
2023/05/04 01:43:15;;;;;;;4.43;1.63;;;;;;;;;;5042724;28;20139;-77
2023/05/04 01:45:40;;;;;;;6.43;2.10;;;;;;;;;;5051444;28;20042;-77
2023/05/04 01:48:06;;;;;;;5.38;1.80;;;;;;;;;;5061217;28;20392;-78
2023/05/04 01:50:31;;;;;;;9.07;2.40;;;;;;;;;;5052328;28;20048;-78
2023/05/04 01:52:56;;;;;;;5.50;1.80;;;;;;;;;;5050054;28;20036;-78
2023/05/04 01:55:22;;;;;;;9.80;2.25;;;;;;;;;;5042099;28;20124;-77
2023/05/04 01:57:47;;;;;;;8.02;2.00;;;;;;;;;;5051494;28;20055;-77
2023/05/04 02:00:14;;;;;;;5.88;1.92;;;;;;;;;;5049673;28;20032;-79
2023/05/04 02:02:39;;;;;;;6.32;2.08;;;;;;;;;;5032762;28;20102;-77
2023/05/04 02:05:05;;;;;;;7.03;1.80;;;;;;;;;;5053020;28;20473;-78
2023/05/04 02:07:30;;;;;;;8.93;2.03;;;;;;;;;;5051088;28;20481;-77
2023/05/04 02:09:55;;;;;;;6.00;1.63;;;;;;;;;;5050705;28;20437;-78
2023/05/04 02:12:21;;;;;;;7.82;2.15;;;;;;;;;;5059584;28;20052;-77
2023/05/04 02:14:46;;;;;;;4.07;1.60;;;;;;;;;;5050223;28;20083;-77
2023/05/04 02:17:12;;;;;;;4.90;1.83;;;;;;;;;;5048222;28;20033;-77
2023/05/04 02:19:37;;;;;;;8.70;1.90;;;;;;;;;;5051675;28;20096;-78
2023/05/04 02:22:02;;;;;;;6.53;2.05;;;;;;;;;;5037523;28;20392;-78
2023/05/04 02:24:28;;;;;;;5.55;2.00;;;;;;;;;;5050085;28;20341;-78
2023/05/04 02:26:53;;;;;;;7.93;1.95;;;;;;;;;;5050837;28;20110;-78
2023/05/04 02:29:18;;;;;;;9.15;1.90;;;;;;;;;;5053686;28;20124;-78
2023/05/04 02:31:44;;;;;;;5.22;2.05;;;;;;;;;;5037580;28;20037;-78
2023/05/04 02:34:09;;;;;;;4.65;2.00;;;;;;;;;;5048191;28;20489;-77
2023/05/04 02:36:34;;;;;;;8.20;2.38;;;;;;;;;;5059525;28;20032;-78
2023/05/04 02:39:00;;;;;;;5.07;1.88;;;;;;;;;;5049149;28;20037;-77
2023/05/04 02:41:25;;;;;;;6.57;1.98;;;;;;;;;;5051674;28;20048;-77
2023/05/04 02:43:51;;;;;;;6.53;1.67;;;;;;;;;;5051097;28;20029;-77
2023/05/04 02:46:18;;;;;;;5.75;1.90;;;;;;;;;;5037235;28;20495;-78
2023/05/04 02:48:44;;;;;;;9.75;1.88;;;;;;;;;;5043383;28;20047;-77
2023/05/04 02:51:09;;;;;;;5.85;1.90;;;;;;;;;;5049550;28;20033;-78
2023/05/04 02:53:35;;;;;;;7.97;1.85;;;;;;;;;;5042574;28;20029;-78
2023/05/04 02:56:00;;;;;;;5.20;1.80;;;;;;;;;;5053290;28;20048;-77
2023/05/04 02:58:25;;;;;;;4.38;1.73;;;;;;;;;;5054223;28;20044;-77
2023/05/04 03:00:57;;;;;;;5.88;1.55;;;;;;;;;;5047470;28;20037;-78
2023/05/04 03:03:22;;;;;;;7.10;2.03;;;;;;;;;;5031745;28;20036;-77
2023/05/04 03:05:47;;;;;;;5.70;2.03;;;;;;;;;;5034951;28;20047;-77
2023/05/04 03:08:13;;;;;;;4.80;1.65;;;;;;;;;;5052413;28;20028;-76
2023/05/04 03:10:38;;;;;;;5.32;1.80;;;;;;;;;;5048507;28;20044;-78
2023/05/04 03:13:04;;;;;;;5.97;1.80;;;;;;;;;;5049656;28;20039;-78
2023/05/04 03:15:33;;;;;;;6.13;1.83;;;;;;;;;;5049361;28;20111;-77
2023/05/04 03:17:58;;;;;;;5.05;1.80;;;;;;;;;;5049695;28;20093;-77
2023/05/04 03:20:24;;;;;;;6.13;1.70;;;;;;;;;;5032446;28;20447;-77
2023/05/04 03:22:49;;;;;;;5.72;2.10;;;;;;;;;;5037440;28;20064;-77
2023/05/04 03:25:14;;;;;;;6.78;2.10;;;;;;;;;;5035547;28;20029;-77
2023/05/04 03:27:40;;;;;;;4.47;2.00;;;;;;;;;;5040749;28;20061;-78
2023/05/04 03:30:06;;;;;;;5.30;1.67;;;;;;;;;;5052868;28;20033;-78
2023/05/04 03:32:32;;;;;;;5.65;1.77;;;;;;;;;;5049523;28;20033;-77
2023/05/04 03:34:57;;;;;;;6.20;2.10;;;;;;;;;;5051107;28;20394;-78
2023/05/04 03:37:23;;;;;;;7.05;2.08;;;;;;;;;;5034303;28;20930;-78
2023/05/04 03:39:48;;;;;;;8.27;1.67;;;;;;;;;;5058760;28;20041;-77
2023/05/04 03:42:14;;;;;;;4.22;1.50;;;;;;;;;;5049378;28;20052;-78
2023/05/04 03:44:40;;;;;;;6.43;1.65;;;;;;;;;;5049875;28;20037;-77
2023/05/04 03:47:05;;;;;;;5.40;2.00;;;;;;;;;;5050891;28;20600;-77
2023/05/04 03:49:31;;;;;;;6.15;2.10;;;;;;;;;;5042764;28;20103;-80
2023/05/04 03:51:56;;;;;;;5.68;2.00;;;;;;;;;;5036327;28;20353;-78
2023/05/04 03:54:21;;;;;;;6.43;1.80;;;;;;;;;;5052609;28;20041;-79
2023/05/04 03:56:47;;;;;;;8.52;1.85;;;;;;;;;;5039049;28;20037;-80
2023/05/04 03:59:12;;;;;;;5.03;1.92;;;;;;;;;;5050370;28;20400;-81
2023/05/04 04:01:37;;;;;;;5.43;2.13;;;;;;;;;;5052189;28;20119;-80
2023/05/04 04:04:03;;;;;;;7.65;2.25;;;;;;;;;;5041945;28;20033;-79
2023/05/04 04:06:29;;;;;;;7.72;2.15;;;;;;;;;;5042161;28;20041;-79
2023/05/04 04:08:55;;;;;;;4.05;1.75;;;;;;;;;;5051562;28;20941;-79
2023/05/04 04:11:20;;;;;;;7.10;1.95;;;;;;;;;;5048536;28;20025;-79
2023/05/04 04:13:45;;;;;;;7.63;2.30;;;;;;;;;;5048825;28;20041;-80
2023/05/04 04:16:11;;;;;;;7.00;2.20;;;;;;;;;;5037953;28;20093;-79
2023/05/04 04:18:37;;;;;;;6.50;1.95;;;;;;;;;;5043168;28;20393;-77
2023/05/04 04:21:03;;;;;;;6.70;2.40;;;;;;;;;;5045631;28;20540;-77
2023/05/04 04:23:28;;;;;;;9.57;2.45;;;;;;;;;;5054736;28;20124;-77
2023/05/04 04:25:53;;;;;;;6.05;2.20;;;;;;;;;;5038429;28;20048;-77
2023/05/04 04:28:19;;;;;;;8.25;2.53;;;;;;;;;;5051690;28;20045;-77
2023/05/04 04:30:45;;;;;;;6.65;2.28;;;;;;;;;;5045336;28;20040;-77
2023/05/04 04:33:10;;;;;;;7.43;2.28;;;;;;;;;;5053037;28;20043;-75
2023/05/04 04:35:36;;;;;;;6.28;1.90;;;;;;;;;;5053747;28;20590;-77
2023/05/04 04:38:01;;;;;;;8.50;2.85;;;;;;;;;;5053964;28;20392;-79
2023/05/04 04:40:27;;;;;;;7.18;3.00;;;;;;;;;;5052866;28;20198;-79
2023/05/04 04:42:52;;;;;;;7.32;2.80;;;;;;;;;;5054467;28;20043;-78
2023/05/04 04:45:19;;;;;;;6.97;2.58;;;;;;;;;;5056640;28;20040;-79
2023/05/04 04:47:44;;;;;;;9.83;2.50;;;;;;;;;;5038094;28;20120;-78
2023/05/04 04:50:10;;;;;;;6.93;2.28;;;;;;;;;;5054350;28;20041;-78
2023/05/04 04:52:36;;;;;;;4.95;1.95;;;;;;;;;;5044984;28;20025;-78
2023/05/04 04:55:03;;;;;;;9.43;2.50;;;;;;;;;;5035831;28;20060;-78
2023/05/04 04:57:29;;;;;;;11.13;3.17;;;;;;;;;;5052945;28;20060;-78
2023/05/04 04:59:54;;;;;;;5.53;2.42;;;;;;;;;;5053541;28;20552;-79
2023/05/04 05:02:20;;;;;;;8.90;3.00;;;;;;;;;;5050740;28;20040;-78
2023/05/04 05:04:45;;;;;;;7.22;2.45;;;;;;;;;;5051525;28;20032;-78
2023/05/04 05:07:11;;;;;;;6.40;2.30;;;;;;;;;;5053517;28;20184;-78
2023/05/04 05:09:37;;;;;;;8.43;2.58;;;;;;;;;;5052307;28;20040;-78
2023/05/04 05:12:03;;;;;;;7.55;2.30;;;;;;;;;;5051175;28;20028;-77
2023/05/04 05:14:30;;;;;;;6.43;2.50;;;;;;;;;;5054309;28;20029;-79
2023/05/04 05:16:56;;;;;;;7.97;2.53;;;;;;;;;;5051923;28;20040;-78
2023/05/04 05:19:21;;;;;;;5.78;2.40;;;;;;;;;;5051476;28;20029;-79
2023/05/04 05:21:48;;;;;;;5.55;1.95;;;;;;;;;;5049762;28;20036;-77
2023/05/04 05:24:13;;;;;;;8.30;2.80;;;;;;;;;;5050159;28;20424;-76
2023/05/04 05:26:39;;;;;;;5.97;2.78;;;;;;;;;;5060306;28;20060;-75
2023/05/04 05:29:04;;;;;;;7.88;2.63;;;;;;;;;;5060942;28;20158;-75
2023/05/04 05:31:30;;;;;;;8.13;2.25;;;;;;;;;;5048446;28;20028;-75
2023/05/04 05:33:55;;;;;;;5.95;2.22;;;;;;;;;;5052726;28;20090;-75
2023/05/04 05:36:21;;;;;;;5.43;2.30;;;;;;;;;;5051348;28;20029;-75
2023/05/04 05:38:46;;;;;;;4.88;2.28;;;;;;;;;;5054328;28;20415;-75
2023/05/04 05:41:12;;;;;;;6.78;2.50;;;;;;;;;;5054470;28;20033;-75
2023/05/04 05:43:37;;;;;;;9.57;2.70;;;;;;;;;;5057689;28;20470;-79
2023/05/04 05:46:23;;;;;;;7.80;2.85;;;;;;;;;;5051682;28;20033;-75
2023/05/04 05:48:49;;;;;;;8.00;2.55;;;;;;;;;;5009096;28;20038;-75
2023/05/04 05:51:14;;;;;;;7.10;2.25;;;;;;;;;;5011435;28;20037;-75
2023/05/04 05:53:41;;;;;;;5.03;2.30;;;;;;;;;;5002554;28;20042;-75
2023/05/04 05:56:07;;;;;;;7.13;3.10;;;;;;;;;;5002670;28;20506;-75
2023/05/04 05:58:32;;;;;;;7.65;2.65;;;;;;;;;;4996810;28;20040;-75
2023/05/04 06:00:58;;;;;;;8.07;2.22;;;;;;;;;;5001828;28;20048;-76
2023/05/04 06:03:23;;;;;;;6.72;2.65;;;;;;;;;;4996449;28;20116;-74
2023/05/04 06:05:49;;;;;;;8.48;2.90;;;;;;;;;;5012301;28;20056;-76
2023/05/04 06:08:14;;;;;;;10.50;2.72;;;;;;;;;;5011410;28;20038;-77
2023/05/04 06:10:39;;;;;;;5.30;2.40;;;;;;;;;;5010599;28;20136;-77
2023/05/04 06:13:05;;;;;;;7.25;2.50;;;;;;;;;;5011151;28;20048;-74
2023/05/04 06:15:30;;;;;;;9.77;2.85;;;;;;;;;;5011754;28;20501;-74
2023/05/04 06:17:55;;;;;;;7.72;2.95;;;;;;;;;;5011332;28;20033;-75
2023/05/04 06:20:21;;;;;;;7.93;2.63;;;;;;;;;;5012177;28;20033;-75
2023/05/04 06:22:47;;;;;;;6.63;2.75;;;;;;;;;;5001357;28;20149;-76
2023/05/04 06:25:12;;;;;;;6.20;2.58;;;;;;;;;;5006087;28;20036;-77
2023/05/04 06:27:38;;;;;;;7.18;2.53;;;;;;;;;;5043669;28;20127;-77
2023/05/04 06:30:04;;;;;;;5.95;2.83;;;;;;;;;;5043245;28;20035;-77
2023/05/04 06:32:29;;;;;;;5.63;2.50;;;;;;;;;;5041894;28;20079;-79
2023/05/04 06:34:55;;;;;;;6.40;2.55;;;;;;;;;;5046456;28;20491;-79
2023/05/04 06:37:21;;;;;;;6.95;2.78;;;;;;;;;;5035195;28;20039;-80
2023/05/04 06:39:46;;;;;;;7.97;2.88;;;;;;;;;;5013584;28;20603;-80
2023/05/04 06:42:12;;;;;;;6.22;3.28;;;;;;;;;;5045862;28;20028;-79
2023/05/04 06:44:38;;;;;;;6.47;2.65;;;;;;;;;;5041299;28;20484;-79
2023/05/04 06:47:04;;;;;;;6.85;2.75;;;;;;;;;;5052304;28;20043;-79
2023/05/04 06:49:35;;;;;;;7.15;2.55;;;;;;;;;;5051982;28;20143;-79
2023/05/04 06:52:00;;;;;;;7.20;2.30;;;;;;;;;;5038072;28;20033;-79
2023/05/04 06:54:27;;;;;;;7.45;2.97;;;;;;;;;;5051774;28;20051;-79
2023/05/04 06:56:52;;;;;;;5.60;2.22;;;;;;;;;;5037304;28;20045;-79
2023/05/04 06:59:19;;;;;;;8.00;3.00;;;;;;;;;;5050374;28;20028;-79
2023/05/04 07:01:46;;;;;;;5.82;2.40;;;;;;;;;;5050272;28;20036;-79
2023/05/04 07:04:11;;;;;;;7.90;2.50;;;;;;;;;;5050114;28;20116;-79
2023/05/04 07:06:38;;;;;;;5.03;1.88;;;;;;;;;;5053176;28;20447;-79
2023/05/04 07:09:03;;;;;;;6.97;2.15;;;;;;;;;;5050346;28;20041;-79
2023/05/04 07:11:29;;;;;;;7.97;2.45;;;;;;;;;;5037311;28;20539;-80
2023/05/04 07:13:55;;;;;;;6.25;2.22;;;;;;;;;;5058828;28;20075;-79
2023/05/04 07:16:20;;;;;;;6.32;2.25;;;;;;;;;;5051492;28;20448;-79
2023/05/04 07:18:46;;;;;;;4.40;1.73;;;;;;;;;;5050426;28;20043;-79
2023/05/04 07:21:12;;;;;;;11.27;2.30;;;;;;;;;;5050115;28;20448;-79
2023/05/04 07:23:37;;;;;;;6.32;2.20;;;;;;;;;;5052992;28;20040;-79
2023/05/04 07:26:03;;;;;;;7.28;2.20;;;;;;;;;;5051540;28;20036;-79
2023/05/04 07:28:28;;;;;;;5.03;1.90;;;;;;;;;;5054290;28;20048;-79
2023/05/04 07:30:54;;;;;;;5.60;1.88;;;;;;;;;;5050354;28;20041;-79
2023/05/04 07:33:19;;;;;;;6.03;2.15;;;;;;;;;;5035967;28;20119;-79
2023/05/04 07:35:44;;;;;;;6.22;2.10;;;;;;;;;;5048673;28;20493;-79
2023/05/04 07:38:10;;;;;;;4.65;1.90;;;;;;;;;;5050097;28;20036;-79
2023/05/04 07:40:35;;;;;;;5.78;1.80;;;;;;;;;;5054899;28;20037;-79
2023/05/04 07:43:00;;;;;;;4.18;1.70;;;;;;;;;;5048009;28;20835;-79
2023/05/04 07:45:26;;;;;;;5.07;1.92;;;;;;;;;;5050607;28;20126;-79
2023/05/04 07:47:51;;;;;;;4.70;1.75;;;;;;;;;;5052530;28;20036;-79
2023/05/04 07:50:17;;;;;;;3.10;1.23;;;;;;;;;;5051145;28;20040;-79
2023/05/04 07:52:45;;;;;;;10.85;1.70;;;;;;;;;;5053031;28;20385;-79
2023/05/04 07:55:11;;;;;;;4.15;1.55;;;;;;;;;;5043596;28;20041;-80
2023/05/04 07:57:36;;;;;;;3.90;1.58;;;;;;;;;;5057275;28;20060;-79
2023/05/04 08:00:04;;;;;;;4.95;1.70;;;;;;;;;;5055152;28;20029;-79
2023/05/04 08:02:29;;;;;;;;;;;;;;;;;;5056241;28;20036;-82
2023/05/04 08:04:55;;;;;;;5.38;1.67;;;;;;;;;;5056139;28;19940;-78
2023/05/04 08:07:21;;;;;;;5.32;1.75;;;;;;;;;;5038984;28;20139;-77
2023/05/04 08:09:47;;;;;;;5.55;1.48;;;;;;;;;;5057704;28;20089;-77
2023/05/04 08:12:14;;;;;;;4.20;1.42;;;;;;;;;;5054807;28;20496;-87
2023/05/04 08:14:39;;;;;;;4.22;1.42;;;;;;;;;;5053096;28;20037;-77
2023/05/04 08:17:05;;;;;;;3.78;1.33;;;;;;;;;;5058161;28;20396;-76
2023/05/04 08:19:30;;;;;;;4.10;1.50;;;;;;;;;;5056315;28;20136;-78
2023/05/04 08:21:55;;;;;;;3.38;1.40;;;;;;;;;;5052869;28;20037;-77
2023/05/04 08:24:21;;;;;;;4.30;1.38;;;;;;;;;;5055952;28;20136;-77
2023/05/04 08:26:46;;;;;;;4.75;1.35;;;;;;;;;;5044880;28;20216;-76
2023/05/04 08:29:11;;;;;;;5.90;1.73;;;;;;;;;;5053607;28;20110;-77
2023/05/04 08:31:37;;;;;;;3.40;1.58;;;;;;;;;;5051522;28;20451;-77
2023/05/04 08:34:03;;;;;;;3.33;1.30;;;;;;;;;;5052140;28;20976;-76
2023/05/04 08:36:29;;;;;;;4.68;1.40;;;;;;;;;;5051450;28;20056;-76
2023/05/04 08:38:54;;;;;;;3.50;1.23;;;;;;;;;;5054102;28;20120;-77
2023/05/04 08:41:20;;;;;;;5.22;1.42;;;;;;;;;;5054877;28;20037;-78
2023/05/04 08:43:48;;;;;;;5.78;1.40;;;;;;;;;;5050836;28;20033;-78
2023/05/04 08:46:14;;;;;;;3.05;1.63;;;;;;;;;;5052978;28;20119;-77
2023/05/04 08:48:41;;;;;;;4.07;1.65;;;;;;;;;;5051580;28;20371;-79
2023/05/04 08:51:07;;;;;;;4.22;1.35;;;;;;;;;;5050543;28;20029;-78
2023/05/04 08:53:35;;;;;;;3.75;1.30;;;;;;;;;;5055107;28;20657;-78
2023/05/04 08:56:03;;;;;;;3.92;1.27;;;;;;;;;;5059912;28;20060;-78
2023/05/04 08:58:28;;;;;;;3.92;1.60;;;;;;;;;;5046524;28;20076;-78
2023/05/04 09:00:55;;;;;;;3.00;1.30;;;;;;;;;;5048068;28;20452;-79
2023/05/04 09:03:20;;;;;;;4.17;1.30;;;;;;;;;;5036733;28;20037;-79
2023/05/04 09:05:46;;;;;;;4.15;1.30;;;;;;;;;;5039106;28;20091;-78
2023/05/04 09:08:11;;;;;;;4.18;1.15;;;;;;;;;;5048770;28;20086;-79
2023/05/04 09:10:36;;;;;;;4.15;1.40;;;;;;;;;;5040651;28;20032;-78
2023/05/04 09:13:02;;;;;;;3.38;1.10;;;;;;;;;;5052091;28;20056;-79
2023/05/04 09:15:27;;;;;;;3.17;1.10;;;;;;;;;;5050621;28;20036;-79
2023/05/04 09:17:57;;;;;;;3.03;1.00;;;;;;;;;;5052877;28;20044;-79
2023/05/04 09:20:24;;;;;;;3.78;1.10;;;;;;;;;;5052404;28;20037;-79
2023/05/04 09:23:07;;;;;;;3.22;1.40;;;;;;;;;;5052238;28;20072;-79
2023/05/04 09:25:33;;;;;;;4.57;1.30;;;;;;;;;;5060682;28;20762;-79
2023/05/04 09:27:59;;;;;;;3.93;1.50;;;;;;;;;;5052259;28;20282;-78
2023/05/04 09:30:25;;;;;;;5.10;1.42;;;;;;;;;;5035334;28;20148;-79
2023/05/04 09:32:51;;;;;;;5.25;1.30;;;;;;;;;;5055378;28;20159;-78
2023/05/04 09:35:27;;;;;;;4.72;1.52;;;;;;;;;;5051032;28;20052;-78
2023/05/04 09:37:52;;;;;;;3.60;1.52;;;;;;;;;;5052670;28;20040;-78
2023/05/04 09:40:31;;;;;;;3.55;1.40;;;;;;;;;;5052911;28;20025;-79
2023/05/04 09:42:57;;;;;;;4.13;1.20;;;;;;;;;;5053564;28;20036;-78
2023/05/04 09:45:22;;;;;;;4.70;1.35;;;;;;;;;;5052962;28;20495;-79
2023/05/04 09:47:51;;;;;;;4.85;1.38;;;;;;;;;;5049810;28;20622;-79
2023/05/04 09:50:21;;;;;;;3.00;1.00;;;;;;;;;;5041080;28;20464;-79
2023/05/04 09:52:47;;;;;;;5.47;1.20;;;;;;;;;;5053734;28;20079;-79
2023/05/04 09:55:14;;;;;;;3.95;1.27;;;;;;;;;;5057564;28;20526;-79
2023/05/04 09:57:41;;;;;;;3.35;1.27;;;;;;;;;;5050867;28;20044;-79
2023/05/04 10:00:09;;;;;;;3.40;1.23;;;;;;;;;;5061232;28;20044;-79
2023/05/04 10:02:35;;;;;;;5.32;1.50;;;;;;;;;;5050247;28;20105;-78
2023/05/04 10:05:00;;;;;;;3.60;1.40;;;;;;;;;;5050221;28;20025;-79
2023/05/04 10:07:30;;;;;;;3.70;1.35;;;;;;;;;;5051412;28;20082;-79
2023/05/04 10:09:57;;;;;;;5.65;2.35;;;;;;;;;;5053361;28;20033;-79
2023/05/04 10:12:22;;;;;;;3.10;1.30;;;;;;;;;;5047002;28;20044;-79
2023/05/04 10:14:48;;;;;;;3.55;1.40;;;;;;;;;;5053086;28;20406;-78
2023/05/04 10:17:24;;;;;;;4.72;1.38;;;;;;;;;;5041515;28;20044;-79
2023/05/04 10:20:11;;;;;;;3.97;1.08;;;;;;;;;;5060374;28;20037;-79
2023/05/04 10:22:58;;;;;;;4.75;1.83;;;;;;;;;;5050484;28;20072;-79
2023/05/04 10:25:51;;;;;;;3.90;1.38;;;;;;;;;;5050459;28;20455;-79
2023/05/04 10:28:23;;;;;;;4.50;1.00;;;;;;;;;;5057803;28;20177;-80
2023/05/04 10:30:57;;;;;;;4.40;1.60;;;;;;;;;;5050925;28;20068;-79
2023/05/04 10:33:22;;;;;;;5.15;1.55;;;;;;;;;;5052770;28;20029;-79
2023/05/04 10:35:52;;;;;;;3.15;1.35;;;;;;;;;;5058088;28;20115;-80
2023/05/04 10:38:17;;;;;;;5.90;1.42;;;;;;;;;;5038663;28;20036;-79
2023/05/04 10:40:47;;;;;;;4.05;1.50;;;;;;;;;;5051801;28;20047;-80
2023/05/04 10:43:22;;;;;;;4.20;1.30;;;;;;;;;;5050593;28;20029;-80
2023/05/04 10:45:48;;;;;;;4.22;1.77;;;;;;;;;;5048782;28;20040;-80
2023/05/04 10:48:13;;;;;;;4.18;1.20;;;;;;;;;;5049567;28;20127;-80
2023/05/04 10:50:47;;;;;;;4.90;1.25;;;;;;;;;;5050020;28;20511;-80
2023/05/04 10:53:14;;;;;;;4.90;1.02;;;;;;;;;;5058253;28;20435;-80
2023/05/04 10:55:41;;;;;;;4.65;1.30;;;;;;;;;;5048190;28;20442;-80
2023/05/04 10:58:07;;;;;;;3.88;1.45;;;;;;;;;;5048017;28;20107;-76
2023/05/04 11:00:36;;;;;;;2.80;1.25;;;;;;;;;;5050617;28;20040;-77
2023/05/04 11:03:02;;;;;;;4.20;1.40;;;;;;;;;;5050552;28;20115;-77
2023/05/04 11:05:39;;;;;;;4.00;1.27;;;;;;;;;;5050058;28;20504;-77
2023/05/04 11:08:23;;;;;;;4.50;1.40;;;;;;;;;;5058971;28;20040;-77
2023/05/04 11:11:07;;;;;;;4.53;1.20;;;;;;;;;;5047379;28;20036;-77
2023/05/04 11:13:33;;;;;;;4.60;1.45;;;;;;;;;;5048754;28;20128;-77
2023/05/04 11:16:00;;;;;;;2.50;1.13;;;;;;;;;;5058483;28;20746;-77
2023/05/04 11:18:36;;;;;;;4.80;1.30;;;;;;;;;;5036479;28;21090;-77
2023/05/04 11:21:02;;;;;;;3.15;1.30;;;;;;;;;;5048516;28;20033;-77
2023/05/04 11:23:28;;;;;;;6.57;1.57;;;;;;;;;;5042247;28;20497;-76
2023/05/04 11:25:54;;;;;;;3.45;1.20;;;;;;;;;;5049224;28;20047;-77
2023/05/04 11:28:30;;;;;;;6.57;1.10;;;;;;;;;;5053891;28;20408;-76
2023/05/04 11:30:56;;;;;;;3.97;1.55;;;;;;;;;;5069320;28;20116;-78
2023/05/04 11:33:21;;;;;;;4.13;1.40;;;;;;;;;;5042215;28;20890;-76
2023/05/04 11:35:47;;;;;;;3.22;1.45;;;;;;;;;;5054432;28;20136;-76
2023/05/04 11:38:18;;;;;;;4.35;1.40;;;;;;;;;;5054635;28;20115;-76
2023/05/04 11:40:46;;;;;;;5.43;1.50;;;;;;;;;;5056524;28;20033;-76
2023/05/04 11:43:12;;;;;;;4.72;1.20;;;;;;;;;;5056922;28;20033;-77
2023/05/04 11:45:39;;;;;;;3.65;1.30;;;;;;;;;;5047149;28;20037;-76
2023/05/04 11:48:04;;;;;;;;;;;;;;;;;;5049026;28;20036;-76
2023/05/04 11:50:30;;;;;;;4.00;1.30;;;;;;;;;;5051127;28;19921;-77
2023/05/04 11:53:22;;;;;;;4.28;1.25;;;;;;;;;;5057618;28;20037;-77
2023/05/04 11:55:48;;;;;;;4.57;1.40;;;;;;;;;;5049478;28;20033;-78
2023/05/04 11:58:13;;;;;;;4.43;1.38;;;;;;;;;;5053087;28;20035;-77
2023/05/04 12:00:41;;;;;;;4.45;1.60;;;;;;;;;;5034888;28;20044;-79
2023/05/04 12:03:13;;;;;;;4.47;1.67;;;;;;;;;;5061542;28;20028;-75
2023/05/04 12:05:49;;;;;;;3.47;1.67;;;;;;;;;;5052671;28;20383;-78
2023/05/04 12:08:48;;;;;;;5.65;1.80;;;;;;;;;;5062555;28;20035;-76
2023/05/04 12:11:15;;;;;;;4.82;1.73;;;;;;;;;;4990519;28;20447;-76
2023/05/04 12:13:42;;;;;;;4.22;1.45;;;;;;;;;;4959136;28;20038;-76
2023/05/04 12:16:11;;;;;;;5.13;1.55;;;;;;;;;;4946397;28;20648;-75
2023/05/04 12:18:37;;;;;;;5.95;1.98;;;;;;;;;;4991568;28;20065;-75
2023/05/04 12:21:08;;;;;;;4.65;1.70;;;;;;;;;;4963730;28;20779;-76
2023/05/04 12:23:35;;;;;;;5.05;2.00;;;;;;;;;;4991099;28;20046;-75
2023/05/04 12:26:01;;;;;;;6.22;1.60;;;;;;;;;;4971426;28;20054;-78
2023/05/04 12:28:28;;;;;;;3.25;1.40;;;;;;;;;;4964304;28;20046;-76
2023/05/04 12:30:53;;;;;;;4.18;1.73;;;;;;;;;;4980023;28;20038;-77
2023/05/04 12:33:19;;;;;;;6.90;1.80;;;;;;;;;;4976344;28;20038;-76
2023/05/04 12:35:44;;;;;;;4.43;1.58;;;;;;;;;;4984323;28;20046;-77
2023/05/04 12:38:10;;;;;;;3.88;1.48;;;;;;;;;;4973865;28;20065;-78
2023/05/04 12:40:35;;;;;;;4.78;1.40;;;;;;;;;;4990433;28;20046;-75
2023/05/04 12:43:22;;;;;;;3.88;1.50;;;;;;;;;;4973855;28;20038;-75
2023/05/04 12:45:51;;;;;;;4.03;1.52;;;;;;;;;;4933440;29;20092;-75
2023/05/04 12:48:17;;;;;;;4.55;1.75;;;;;;;;;;4958633;28;20080;-77
2023/05/04 12:50:43;;;;;;;6.22;1.60;;;;;;;;;;4984495;28;20043;-77
2023/05/04 12:53:09;;;;;;;3.72;1.58;;;;;;;;;;4991702;28;20034;-75
2023/05/04 12:55:34;;;;;;;4.07;1.70;;;;;;;;;;4973784;28;20049;-76
2023/05/04 12:58:00;;;;;;;3.30;1.70;;;;;;;;;;4990989;28;20042;-76
2023/05/04 13:00:26;;;;;;;4.20;1.60;;;;;;;;;;4989631;28;20045;-76
2023/05/04 13:02:51;;;;;;;6.00;1.48;;;;;;;;;;4990637;28;20120;-76
2023/05/04 13:05:17;;;;;;;4.03;1.40;;;;;;;;;;4973978;28;20494;-76
2023/05/04 13:07:42;;;;;;;4.38;1.40;;;;;;;;;;4992814;28;20053;-76
2023/05/04 13:10:08;;;;;;;5.07;1.38;;;;;;;;;;4990748;28;20070;-76
2023/05/04 13:12:33;;;;;;;3.65;1.30;;;;;;;;;;4988753;28;20104;-76
2023/05/04 13:14:59;;;;;;;3.97;1.63;;;;;;;;;;4989377;28;20041;-76
2023/05/04 13:17:26;;;;;;;2.85;1.35;;;;;;;;;;4988240;28;20033;-78
2023/05/04 13:19:52;;;;;;;2.83;1.50;;;;;;;;;;4991330;28;20060;-79
2023/05/04 13:22:17;;;;;;;4.32;1.60;;;;;;;;;;4992144;28;20033;-77
2023/05/04 13:24:42;;;;;;;4.68;1.90;;;;;;;;;;5044691;28;20119;-79
2023/05/04 13:27:08;;;;;;;3.78;1.70;;;;;;;;;;5032899;28;20392;-80
2023/05/04 13:29:33;;;;;;;3.65;1.70;;;;;;;;;;5032175;28;20048;-78
2023/05/04 13:32:00;;;;;;;2.30;1.38;;;;;;;;;;5046039;28;20476;-78
2023/05/04 13:34:25;;;;;;;4.85;1.38;;;;;;;;;;5051623;28;20120;-78
2023/05/04 13:36:51;;;;;;;5.25;2.22;;;;;;;;;;5049083;28;20449;-78
2023/05/04 13:39:20;;;;;;;4.18;1.50;;;;;;;;;;5051131;28;20029;-79
2023/05/04 13:41:46;;;;;;;3.90;1.40;;;;;;;;;;5051493;28;20037;-79
2023/05/04 13:44:11;;;;;;;3.65;1.10;;;;;;;;;;5052533;28;20401;-79
2023/05/04 13:46:37;;;;;;;3.28;1.40;;;;;;;;;;5050340;28;20033;-79
2023/05/04 13:49:02;;;;;;;2.60;1.20;;;;;;;;;;5037143;28;20938;-78
2023/05/04 13:51:29;;;;;;;2.58;1.20;;;;;;;;;;5035488;28;20058;-78
2023/05/04 13:53:54;;;;;;;3.17;1.25;;;;;;;;;;5050979;28;20610;-79
2023/05/04 13:56:20;;;;;;;5.78;1.52;;;;;;;;;;5053126;28;20029;-79
2023/05/04 13:58:45;;;;;;;4.80;1.40;;;;;;;;;;5052252;28;20418;-79
2023/05/04 14:01:10;;;;;;;3.05;1.45;;;;;;;;;;5052199;28;20040;-78
2023/05/04 14:03:36;;;;;;;2.58;1.20;;;;;;;;;;5055138;28;20143;-79
2023/05/04 14:06:02;;;;;;;3.40;1.02;;;;;;;;;;5050251;28;20040;-79
2023/05/04 14:08:27;;;;;;;4.07;1.45;;;;;;;;;;5054852;28;20047;-80
2023/05/04 14:10:52;;;;;;;3.20;1.20;;;;;;;;;;5052077;28;20060;-79
2023/05/04 14:13:18;;;;;;;3.08;1.02;;;;;;;;;;5064342;28;20365;-79
2023/05/04 14:15:44;;;;;;;4.57;1.48;;;;;;;;;;5054303;28;20044;-79
2023/05/04 14:18:09;;;;;;;4.30;1.33;;;;;;;;;;5039325;28;20539;-79
2023/05/04 14:20:35;;;;;;;2.53;1.05;;;;;;;;;;5051595;28;20033;-78
2023/05/04 14:23:00;;;;;;;3.03;1.25;;;;;;;;;;5049509;28;20120;-77
2023/05/04 14:25:26;;;;;;;4.47;1.10;;;;;;;;;;5054221;28;20032;-78
2023/05/04 14:27:51;;;;;;;3.08;1.10;;;;;;;;;;5049130;28;20052;-77
2023/05/04 14:30:16;;;;;;;2.70;1.10;;;;;;;;;;5048215;28;20032;-76
2023/05/04 14:32:42;;;;;;;2.78;1.10;;;;;;;;;;5049512;28;20082;-77
2023/05/04 14:35:09;;;;;;;3.53;1.40;;;;;;;;;;5052041;28;20033;-76
2023/05/04 14:37:36;;;;;;;;;;;;;;;;;;5050653;28;20554;-76
2023/05/04 14:40:12;;;;;;;4.57;1.35;;;;;;;;;;5050116;28;19943;-76